createdAt,value
2018-12-17T00:00:46.692Z,94.50
2018-12-17T00:03:15.074Z,94.90
2018-12-17T00:05:43.155Z,94.70
2018-12-17T00:08:11.856Z,94.50
2018-12-17T00:10:41.405Z,95.30
2018-12-17T00:13:09.621Z,95.20
2018-12-17T00:15:37.765Z,95.30
2018-12-17T00:18:06.002Z,95.60
2018-12-17T00:20:35.487Z,95.50
2018-12-17T00:23:03.769Z,95.80
2018-12-17T00:25:32.170Z,95.50
2018-12-17T00:28:00.587Z,95.30
2018-12-17T00:30:28.785Z,95.00
2018-12-17T00:32:56.968Z,95.50
2018-12-17T00:35:25.174Z,95.30
2018-12-17T00:37:54.052Z,94.80
2018-12-17T00:40:23.875Z,94.60
2018-12-17T00:42:52.285Z,94.10
2018-12-17T00:45:21.529Z,92.90
2018-12-17T00:47:50.333Z,93.00
2018-12-17T00:50:19.409Z,93.40
2018-12-17T00:52:47.590Z,93.80
2018-12-17T00:55:15.695Z,93.80
2018-12-17T00:57:43.897Z,93.90
2018-12-17T01:00:12.269Z,93.90
2018-12-17T01:02:41.577Z,93.80
2018-12-17T01:05:10.175Z,95.00
2018-12-17T01:07:38.399Z,96.10
2018-12-17T01:10:08.398Z,96.10
2018-12-17T01:12:36.779Z,96.10
2018-12-17T01:15:07.178Z,96.20
2018-12-17T01:17:35.393Z,95.30
2018-12-17T01:20:04.607Z,94.30
2018-12-17T01:22:33.135Z,94.00
2018-12-17T01:25:01.412Z,94.00
2018-12-17T01:27:29.666Z,93.70
2018-12-17T01:29:58.172Z,93.90
2018-12-17T01:32:26.360Z,94.20
2018-12-17T01:34:54.534Z,94.40
2018-12-17T01:37:23.367Z,94.50
2018-12-17T01:39:51.681Z,94.90
2018-12-17T01:42:19.934Z,94.70
2018-12-17T01:44:48.309Z,94.80
2018-12-17T01:47:16.406Z,95.10
2018-12-17T01:49:45.382Z,94.90
2018-12-17T01:52:14.946Z,95.00
2018-12-17T01:54:43.232Z,94.70
2018-12-17T01:57:11.629Z,94.30
2018-12-17T01:59:40.457Z,94.10
2018-12-17T02:02:09.641Z,93.80
2018-12-17T02:04:37.878Z,93.30
2018-12-17T02:07:06.402Z,93.50
2018-12-17T02:09:34.656Z,94.00
2018-12-17T02:12:02.925Z,94.10
2018-12-17T02:14:31.066Z,94.40
2018-12-17T02:16:59.197Z,94.40
2018-12-17T02:19:27.740Z,94.40
2018-12-17T02:21:55.976Z,94.70
2018-12-17T02:24:24.475Z,94.90
2018-12-17T02:26:52.700Z,95.00
2018-12-17T02:29:21.056Z,95.20
2018-12-17T02:31:49.183Z,95.20
2018-12-17T02:34:18.011Z,95.40
2018-12-17T02:36:46.118Z,95.60
2018-12-17T02:39:14.951Z,95.70
2018-12-17T02:41:43.329Z,95.80
2018-12-17T02:44:11.645Z,95.70
2018-12-17T02:46:39.789Z,95.80
2018-12-17T02:49:08.862Z,96.30
2018-12-17T02:51:38.027Z,96.50
2018-12-17T02:54:06.321Z,96.50
2018-12-17T02:56:34.781Z,96.20
2018-12-17T02:59:04.085Z,96.20
2018-12-17T03:01:32.600Z,95.20
2018-12-17T03:04:01.026Z,95.00
2018-12-17T03:06:29.297Z,95.60
2018-12-17T03:08:57.990Z,96.00
2018-12-17T03:11:26.192Z,95.60
2018-12-17T03:13:54.537Z,95.80
2018-12-17T03:16:22.655Z,95.60
2018-12-17T03:18:51.015Z,95.80
2018-12-17T03:21:19.379Z,96.00
2018-12-17T03:23:47.958Z,96.10
2018-12-17T03:26:16.231Z,96.60
2018-12-17T03:28:51.579Z,96.60
2018-12-17T03:31:16.306Z,96.60
2018-12-17T03:33:44.687Z,96.60
2018-12-17T03:36:12.915Z,96.60
2018-12-17T03:38:41.177Z,96.60
2018-12-17T03:41:09.442Z,96.50
2018-12-17T03:43:38.478Z,96.60
2018-12-17T03:46:06.985Z,96.40
2018-12-17T03:48:35.427Z,96.20
2018-12-17T03:51:04.229Z,95.90
2018-12-17T03:53:32.564Z,95.70
2018-12-17T03:56:00.935Z,95.40
2018-12-17T03:58:29.782Z,95.00
2018-12-17T04:00:58.325Z,95.10
2018-12-17T04:03:26.575Z,95.50
2018-12-17T04:05:55.702Z,95.70
2018-12-17T04:08:24.189Z,95.40
2018-12-17T04:10:53.864Z,94.80
2018-12-17T04:13:22.171Z,95.00
2018-12-17T04:15:50.688Z,95.30
2018-12-17T04:18:19.337Z,95.80
2018-12-17T04:20:47.454Z,95.50
2018-12-17T04:23:15.695Z,95.00
2018-12-17T04:25:43.961Z,95.10
2018-12-17T04:28:13.134Z,95.40
2018-12-17T04:30:41.497Z,95.40
2018-12-17T04:33:09.667Z,95.50
2018-12-17T04:35:37.986Z,95.60
2018-12-17T04:38:06.130Z,96.00
2018-12-17T04:40:34.236Z,96.20
2018-12-17T04:43:02.474Z,96.40
2018-12-17T04:45:30.837Z,96.00
2018-12-17T04:47:59.184Z,95.70
2018-12-17T04:50:27.602Z,95.90
2018-12-17T04:52:55.815Z,96.20
2018-12-17T04:55:24.382Z,96.20
2018-12-17T04:57:52.996Z,96.20
2018-12-17T05:00:22.133Z,96.20
2018-12-17T05:02:50.216Z,96.30
2018-12-17T05:05:18.655Z,96.60
2018-12-17T05:07:47.395Z,96.60
2018-12-17T05:10:15.684Z,96.60
2018-12-17T05:12:43.762Z,96.60
2018-12-17T05:15:12.561Z,96.60
2018-12-17T05:17:40.824Z,96.60
2018-12-17T05:20:09.228Z,96.60
2018-12-17T05:22:37.558Z,96.60
2018-12-17T05:25:06.751Z,96.60
2018-12-17T05:27:35.277Z,96.60
2018-12-17T05:30:04.776Z,96.60
2018-12-17T05:32:33.215Z,96.60
2018-12-17T05:35:01.508Z,96.60
2018-12-17T05:37:29.783Z,96.60
2018-12-17T05:39:57.872Z,96.60
2018-12-17T05:42:26.130Z,96.60
2018-12-17T05:44:54.347Z,96.60
2018-12-17T05:47:22.651Z,96.60
2018-12-17T05:49:50.867Z,96.60
2018-12-17T05:52:19.166Z,96.60
2018-12-17T05:54:47.425Z,96.60
2018-12-17T05:57:15.620Z,96.60
2018-12-17T05:59:44.143Z,96.60
2018-12-17T06:02:12.539Z,96.60
2018-12-17T06:04:40.753Z,96.60
2018-12-17T06:07:09.326Z,96.60
2018-12-17T06:09:38.719Z,96.60
2018-12-17T06:12:07.034Z,96.60
2018-12-17T06:14:35.355Z,96.60
2018-12-17T06:17:03.814Z,96.60
2018-12-17T06:19:31.985Z,96.60
2018-12-17T06:22:00.728Z,96.60
2018-12-17T06:24:29.007Z,96.60
2018-12-17T06:26:57.571Z,96.60
2018-12-17T06:29:25.912Z,96.60
2018-12-17T06:31:54.042Z,96.60
2018-12-17T06:34:22.251Z,96.60
2018-12-17T06:36:50.355Z,96.60
2018-12-17T06:39:18.660Z,96.60
2018-12-17T06:41:47.057Z,96.60
2018-12-17T06:44:15.223Z,96.60
2018-12-17T06:46:43.431Z,96.60
2018-12-17T06:49:11.546Z,96.60
2018-12-17T06:51:40.316Z,96.60
2018-12-17T06:54:08.460Z,96.60
2018-12-17T06:56:37.010Z,96.60
2018-12-17T06:59:05.764Z,96.60
2018-12-17T07:01:34.167Z,96.60
2018-12-17T07:04:02.679Z,96.60
2018-12-17T07:06:31.080Z,96.60
2018-12-17T07:08:59.258Z,96.60
2018-12-17T07:11:27.411Z,96.60
2018-12-17T07:13:55.592Z,96.60
2018-12-17T07:16:23.785Z,96.60
2018-12-17T07:18:52.093Z,96.60
2018-12-17T07:21:20.793Z,96.60
2018-12-17T07:23:48.894Z,96.60
2018-12-17T07:26:17.167Z,96.60
2018-12-17T07:28:45.695Z,96.60
2018-12-17T07:31:13.933Z,96.60
2018-12-17T07:33:42.102Z,96.60
2018-12-17T07:36:10.328Z,96.60
2018-12-17T07:38:38.672Z,96.60
2018-12-17T07:41:07.278Z,96.60
2018-12-17T07:43:35.865Z,96.60
2018-12-17T07:46:04.539Z,96.60
2018-12-17T07:48:32.738Z,96.60
2018-12-17T07:51:01.616Z,96.60
2018-12-17T07:53:29.843Z,96.60
2018-12-17T07:55:58.226Z,96.60
2018-12-17T07:58:26.539Z,96.60
2018-12-17T08:00:54.876Z,96.60
2018-12-17T08:03:23.556Z,96.60
2018-12-17T08:05:51.908Z,96.60
2018-12-17T08:08:20.018Z,96.60
2018-12-17T08:10:48.254Z,96.60
2018-12-17T08:13:16.500Z,96.60
2018-12-17T08:15:44.916Z,96.60
2018-12-17T08:18:21.047Z,96.60
2018-12-17T08:20:49.607Z,96.60
2018-12-17T08:23:17.963Z,96.60
2018-12-17T08:25:46.561Z,96.60
2018-12-17T08:28:15.132Z,96.60
2018-12-17T08:30:43.378Z,96.60
2018-12-17T08:33:11.932Z,96.60
2018-12-17T08:35:40.133Z,96.60
2018-12-17T08:38:08.302Z,96.60
2018-12-17T08:40:37.518Z,96.60
2018-12-17T08:43:05.948Z,96.60
2018-12-17T08:45:34.145Z,96.60
2018-12-17T08:48:02.612Z,96.60
2018-12-17T08:50:31.529Z,96.60
2018-12-17T08:52:59.701Z,96.60
2018-12-17T08:55:28.014Z,96.60
2018-12-17T08:57:56.788Z,96.60
2018-12-17T09:00:25.280Z,96.60
2018-12-17T09:02:53.522Z,96.60
2018-12-17T09:05:21.969Z,96.60
2018-12-17T09:07:50.146Z,96.60
2018-12-17T09:10:18.440Z,96.60
2018-12-17T09:12:46.575Z,96.60
2018-12-17T09:15:14.844Z,96.60
2018-12-17T09:17:43.062Z,96.60
2018-12-17T09:20:11.222Z,96.60
2018-12-17T09:22:39.744Z,96.60
2018-12-17T09:25:08.241Z,96.60
2018-12-17T09:27:36.851Z,96.60
2018-12-17T09:30:07.091Z,96.60
2018-12-17T09:32:35.553Z,96.60
2018-12-17T09:35:04.377Z,96.60
2018-12-17T09:37:32.632Z,96.60
2018-12-17T09:40:00.949Z,96.60
2018-12-17T09:42:29.132Z,96.60
2018-12-17T09:44:57.339Z,96.60
2018-12-17T09:47:25.611Z,96.60
2018-12-17T09:49:53.762Z,96.60
2018-12-17T09:52:21.958Z,96.60
2018-12-17T09:54:50.188Z,96.60
2018-12-17T09:57:18.290Z,96.60
2018-12-17T09:59:46.689Z,96.60
2018-12-17T10:02:14.978Z,96.60
2018-12-17T10:04:43.102Z,96.60
2018-12-17T10:07:11.373Z,96.60
2018-12-17T10:09:39.725Z,96.60
2018-12-17T10:12:08.061Z,96.60
2018-12-17T10:14:36.534Z,96.60
2018-12-17T10:17:04.873Z,96.60
2018-12-17T10:19:33.194Z,96.60
2018-12-17T10:22:01.372Z,96.60
2018-12-17T10:24:29.438Z,96.60
2018-12-17T10:26:58.579Z,96.60
2018-12-17T10:29:26.989Z,96.60
2018-12-17T10:31:55.347Z,96.60
2018-12-17T10:34:23.565Z,96.60
2018-12-17T10:36:51.701Z,96.60
2018-12-17T10:39:20.120Z,96.60
2018-12-17T10:41:48.290Z,96.60
2018-12-17T10:44:16.620Z,96.60
2018-12-17T10:46:44.835Z,96.60
2018-12-17T10:49:13.088Z,96.60
2018-12-17T10:51:41.444Z,96.60
2018-12-17T10:54:09.779Z,96.60
2018-12-17T10:56:37.893Z,96.60
2018-12-17T10:59:07.071Z,96.60
2018-12-17T11:01:40.747Z,96.60
2018-12-17T11:04:17.029Z,96.60
2018-12-17T11:06:45.606Z,96.60
2018-12-17T11:09:14.167Z,96.60
2018-12-17T11:11:42.343Z,96.60
2018-12-17T11:14:10.999Z,96.60
2018-12-17T11:16:39.178Z,96.60
2018-12-17T11:19:07.505Z,96.60
2018-12-17T11:21:35.740Z,96.60
2018-12-17T11:24:04.106Z,96.60
2018-12-17T11:26:32.218Z,96.60
2018-12-17T11:29:00.867Z,96.60
2018-12-17T11:31:29.120Z,96.60
2018-12-17T11:33:57.340Z,96.60
2018-12-17T11:36:25.559Z,96.60
2018-12-17T11:38:53.794Z,96.60
2018-12-17T11:41:22.043Z,96.60
2018-12-17T11:43:50.122Z,96.60
2018-12-17T11:46:18.572Z,96.60
2018-12-17T11:48:46.949Z,96.60
2018-12-17T11:51:15.267Z,96.60
2018-12-17T11:53:44.078Z,96.60
2018-12-17T11:56:12.342Z,96.60
2018-12-17T11:58:40.569Z,96.60
2018-12-17T12:01:10.182Z,96.60
2018-12-17T12:03:40.912Z,96.60
2018-12-17T12:06:13.866Z,96.60
2018-12-17T12:08:39.505Z,96.60
2018-12-17T12:11:07.907Z,96.60
2018-12-17T12:13:36.928Z,96.60
2018-12-17T12:16:05.152Z,96.60
2018-12-17T12:18:33.294Z,96.60
2018-12-17T12:21:01.548Z,96.60
2018-12-17T12:23:29.703Z,96.60
2018-12-17T12:25:57.949Z,96.60
2018-12-17T12:28:26.688Z,96.60
2018-12-17T12:31:00.440Z,96.60
2018-12-17T12:33:26.172Z,96.60
2018-12-17T12:35:54.337Z,96.60
2018-12-17T12:38:22.518Z,96.60
2018-12-17T12:40:50.736Z,96.60
2018-12-17T12:43:19.101Z,96.60
2018-12-17T12:45:47.441Z,96.60
2018-12-17T12:48:15.743Z,96.60
2018-12-17T12:50:44.082Z,96.60
2018-12-17T12:53:12.855Z,96.60
2018-12-17T12:55:41.056Z,96.60
2018-12-17T12:58:09.396Z,96.60
2018-12-17T13:00:38.479Z,96.60
2018-12-17T13:03:06.642Z,96.60
2018-12-17T13:05:34.772Z,96.60
2018-12-17T13:08:03.204Z,96.60
2018-12-17T13:10:31.335Z,96.60
2018-12-17T13:12:59.726Z,96.60
2018-12-17T13:15:27.939Z,96.60
2018-12-17T13:17:56.176Z,96.60
2018-12-17T13:20:24.282Z,96.60
2018-12-17T13:22:52.409Z,96.60
2018-12-17T13:25:28.892Z,96.60
2018-12-17T13:27:57.036Z,96.60
2018-12-17T13:30:25.423Z,96.60
2018-12-17T13:32:53.873Z,96.60
2018-12-17T13:35:22.077Z,96.60
2018-12-17T13:37:50.929Z,96.60
2018-12-17T13:40:19.354Z,96.60
2018-12-17T13:42:47.581Z,96.60
2018-12-17T13:45:16.401Z,96.60
2018-12-17T13:47:45.086Z,96.60
2018-12-17T13:50:19.284Z,96.60
2018-12-17T13:52:47.438Z,96.60
2018-12-17T13:55:15.812Z,96.60
2018-12-17T13:57:44.159Z,96.60
2018-12-17T14:00:13.162Z,96.60
2018-12-17T14:02:41.469Z,96.60
2018-12-17T14:05:09.791Z,96.60
2018-12-17T14:07:38.091Z,96.60
2018-12-17T14:10:14.479Z,96.60
2018-12-17T14:12:42.860Z,96.60
2018-12-17T14:15:11.212Z,96.60
2018-12-17T14:17:41.593Z,96.60
2018-12-17T14:20:15.066Z,96.60
2018-12-17T14:22:44.206Z,96.60
2018-12-17T14:25:12.489Z,96.60
2018-12-17T14:27:40.615Z,96.60
2018-12-17T14:30:10.615Z,96.60
2018-12-17T14:32:38.774Z,96.60
2018-12-17T14:35:07.360Z,96.60
2018-12-17T14:37:39.897Z,96.60
2018-12-17T14:40:08.330Z,96.60
2018-12-17T14:42:36.606Z,96.60
2018-12-17T14:45:06.306Z,96.60
2018-12-17T14:47:34.602Z,96.60
2018-12-17T14:50:04.017Z,96.60
2018-12-17T14:52:32.229Z,96.60
2018-12-17T14:55:00.414Z,96.60
2018-12-17T14:57:28.941Z,96.60
2018-12-17T14:59:57.522Z,96.60
2018-12-17T15:02:25.872Z,96.60
2018-12-17T15:11:40.071Z,96.60
2018-12-17T15:14:08.538Z,96.60
2018-12-17T15:16:37.853Z,96.60
2018-12-17T15:19:06.169Z,96.60
2018-12-17T15:21:34.422Z,96.60
2018-12-17T15:24:02.713Z,96.60
2018-12-17T15:26:30.989Z,96.60
2018-12-17T15:28:59.806Z,96.60
2018-12-17T15:31:27.993Z,96.60
2018-12-17T15:33:56.233Z,96.60
2018-12-17T15:36:24.438Z,96.60
2018-12-17T15:38:53.315Z,96.60
2018-12-17T15:41:22.008Z,96.60
2018-12-17T15:43:50.576Z,96.60
2018-12-17T15:46:18.997Z,96.60
2018-12-17T15:48:47.158Z,96.60
2018-12-17T15:51:15.668Z,96.60
2018-12-17T15:53:43.837Z,96.60
2018-12-17T15:56:12.170Z,96.60
2018-12-17T15:58:40.468Z,96.60
2018-12-17T16:01:09.100Z,96.60
2018-12-17T16:03:37.288Z,96.60
2018-12-17T16:06:05.451Z,96.60
2018-12-17T16:08:34.073Z,96.60
2018-12-17T16:11:02.161Z,96.60
2018-12-17T16:13:30.727Z,96.60
2018-12-17T16:15:58.823Z,96.60
2018-12-17T16:18:27.043Z,96.60
2018-12-17T16:20:55.238Z,96.60
2018-12-17T16:23:23.629Z,96.60
2018-12-17T16:25:51.757Z,96.60
2018-12-17T16:28:20.050Z,96.60
2018-12-17T16:30:48.571Z,96.60
2018-12-17T16:33:16.827Z,96.60
2018-12-17T16:35:45.015Z,96.60
2018-12-17T16:38:13.750Z,96.60
2018-12-17T16:40:42.517Z,96.60
2018-12-17T16:43:10.978Z,96.60
2018-12-17T16:45:39.433Z,96.60
2018-12-17T16:48:07.613Z,96.60
2018-12-17T16:50:35.860Z,96.60
2018-12-17T16:53:04.311Z,96.60
2018-12-17T16:55:32.527Z,96.60
2018-12-17T16:58:01.347Z,96.60
2018-12-17T17:00:29.887Z,96.60
2018-12-17T17:02:58.401Z,96.60
2018-12-17T17:05:26.833Z,96.60
2018-12-17T17:07:55.236Z,96.60
2018-12-17T17:10:23.529Z,96.60
2018-12-17T17:12:51.740Z,96.60
2018-12-17T17:15:19.935Z,96.60
2018-12-17T17:17:48.312Z,96.60
2018-12-17T17:20:16.550Z,96.60
2018-12-17T17:22:44.718Z,96.60
2018-12-17T17:25:13.033Z,96.60
2018-12-17T17:27:41.413Z,96.60
2018-12-17T17:30:11.730Z,96.60
2018-12-17T17:32:39.934Z,96.60
2018-12-17T17:35:09.126Z,96.60
2018-12-17T17:37:37.295Z,96.60
2018-12-17T17:40:06.020Z,96.60
2018-12-17T17:42:34.214Z,96.60
2018-12-17T17:45:02.516Z,96.60
2018-12-17T17:47:30.849Z,96.60
2018-12-17T17:49:59.466Z,96.60
2018-12-17T17:52:27.554Z,96.60
2018-12-17T17:54:55.914Z,96.60
2018-12-17T17:57:24.239Z,96.60
2018-12-17T17:59:52.745Z,96.60
2018-12-17T18:02:20.905Z,96.60
2018-12-17T18:04:49.186Z,96.60
2018-12-17T18:07:17.467Z,96.60
2018-12-17T18:09:45.769Z,96.60
2018-12-17T18:12:14.153Z,96.60
2018-12-17T18:14:42.407Z,96.60
2018-12-17T18:17:10.531Z,96.60
2018-12-17T18:19:38.943Z,96.60
2018-12-17T18:22:07.172Z,96.60
2018-12-17T18:24:35.989Z,96.60
2018-12-17T18:27:04.296Z,96.60
2018-12-17T18:29:32.623Z,96.60
2018-12-17T18:32:00.843Z,96.60
2018-12-17T18:34:29.640Z,96.60
2018-12-17T18:36:57.962Z,96.60
2018-12-17T18:39:26.247Z,96.60
2018-12-17T18:41:54.711Z,96.60
2018-12-17T18:44:23.015Z,96.60
2018-12-17T18:46:51.390Z,96.60
2018-12-17T18:49:20.225Z,96.60
2018-12-17T18:51:48.475Z,96.60
2018-12-17T18:54:17.354Z,96.60
2018-12-17T18:56:45.544Z,96.60
2018-12-17T18:59:14.225Z,96.60
2018-12-17T19:01:42.881Z,96.60
2018-12-17T19:04:11.279Z,96.60
2018-12-17T19:06:39.962Z,96.60
2018-12-17T19:09:08.810Z,96.60
2018-12-17T19:11:37.195Z,96.60
2018-12-17T19:14:06.795Z,96.60
2018-12-17T19:16:35.688Z,96.60
2018-12-17T19:19:04.211Z,96.60
2018-12-17T19:21:32.363Z,96.60
2018-12-17T19:24:00.701Z,96.60
2018-12-17T19:26:28.891Z,96.60
2018-12-17T19:28:57.654Z,96.60
2018-12-17T19:31:27.270Z,96.60
2018-12-17T19:33:55.662Z,96.60
2018-12-17T19:36:24.168Z,96.60
2018-12-17T19:38:52.412Z,96.60
2018-12-17T19:41:20.654Z,96.60
2018-12-17T19:43:48.970Z,96.60
2018-12-17T19:46:17.355Z,96.60
2018-12-17T19:48:45.854Z,96.60
2018-12-17T19:51:14.484Z,96.60
2018-12-17T19:53:42.807Z,96.60
2018-12-17T19:56:11.259Z,96.60
2018-12-17T19:58:39.503Z,96.60
2018-12-17T20:01:07.970Z,96.60
2018-12-17T20:03:36.230Z,96.60
2018-12-17T20:06:04.490Z,96.60
2018-12-17T20:08:32.933Z,96.60
2018-12-17T20:11:01.320Z,96.60
2018-12-17T20:13:29.590Z,96.60
2018-12-17T20:15:57.802Z,96.60
2018-12-17T20:18:26.683Z,96.60
2018-12-17T20:20:54.802Z,96.60
2018-12-17T20:23:22.927Z,96.60
2018-12-17T20:25:51.862Z,96.60
2018-12-17T20:28:21.085Z,96.60
2018-12-17T20:30:49.659Z,96.60
2018-12-17T20:33:18.024Z,96.60
2018-12-17T20:35:46.248Z,96.60
2018-12-17T20:38:14.501Z,96.60
2018-12-17T20:40:42.772Z,96.60
2018-12-17T20:43:10.978Z,96.60
2018-12-17T20:45:39.148Z,96.60
2018-12-17T20:48:07.841Z,96.60
2018-12-17T20:50:36.236Z,96.60
2018-12-17T20:53:04.586Z,96.60
2018-12-17T20:55:32.796Z,96.60
2018-12-17T20:58:00.910Z,96.60
2018-12-17T21:00:29.521Z,96.60
2018-12-17T21:03:00.508Z,96.60
2018-12-17T21:05:28.216Z,96.60
2018-12-17T21:07:56.721Z,96.60
2018-12-17T21:10:25.316Z,96.60
2018-12-17T21:12:54.127Z,96.60
2018-12-17T21:15:22.275Z,96.60
2018-12-17T21:17:51.376Z,96.60
2018-12-17T21:20:19.780Z,96.60
2018-12-17T21:22:48.072Z,96.60
2018-12-17T21:25:16.482Z,96.60
2018-12-17T21:27:45.420Z,96.60
2018-12-17T21:30:13.900Z,96.60
2018-12-17T21:32:43.262Z,96.60
2018-12-17T21:35:11.648Z,96.60
2018-12-17T21:37:39.860Z,96.60
2018-12-17T21:41:33.371Z,96.60
2018-12-17T21:44:01.598Z,96.60
2018-12-17T21:46:29.984Z,96.60
2018-12-17T21:48:59.009Z,96.60
2018-12-17T21:51:28.318Z,96.60
2018-12-17T21:53:56.577Z,96.60
2018-12-17T21:56:24.896Z,96.60
2018-12-17T21:58:53.204Z,96.60
2018-12-17T22:01:21.776Z,96.60
2018-12-17T22:03:50.646Z,96.60
2018-12-17T22:06:18.830Z,96.60
2018-12-17T22:08:47.183Z,96.60
2018-12-17T22:11:15.559Z,96.60
2018-12-17T22:13:43.765Z,96.60
2018-12-17T22:16:11.916Z,96.60
2018-12-17T22:18:40.214Z,96.60
2018-12-17T22:21:08.398Z,96.60
2018-12-17T22:23:37.125Z,96.60
2018-12-17T22:26:05.525Z,96.60
2018-12-17T22:28:33.709Z,96.60
2018-12-17T22:31:02.303Z,96.60
2018-12-17T22:33:30.499Z,96.60
2018-12-17T22:35:58.834Z,96.60
2018-12-17T22:38:27.168Z,96.60
2018-12-17T22:40:55.306Z,96.60
2018-12-17T22:43:23.589Z,96.60
2018-12-17T22:45:52.637Z,96.60
2018-12-17T22:48:21.136Z,96.60
2018-12-17T22:50:49.848Z,96.60
2018-12-17T22:53:18.041Z,96.60
2018-12-17T22:55:46.408Z,96.60
2018-12-17T22:58:14.779Z,96.60
2018-12-17T23:00:47.140Z,96.60
2018-12-17T23:03:15.381Z,96.60
2018-12-17T23:05:43.622Z,96.60
2018-12-17T23:08:11.812Z,96.60
2018-12-17T23:10:51.296Z,96.60
2018-12-17T23:13:30.956Z,96.60
2018-12-17T23:16:10.651Z,96.60
2018-12-17T23:18:38.024Z,96.60
2018-12-17T23:21:06.546Z,96.60
2018-12-17T23:23:34.766Z,96.60
2018-12-17T23:26:03.043Z,96.60
2018-12-17T23:28:31.237Z,96.60
2018-12-17T23:30:59.712Z,96.60
2018-12-17T23:33:32.762Z,96.60
2018-12-17T23:35:58.950Z,96.60
2018-12-17T23:38:27.422Z,96.60
2018-12-17T23:40:56.015Z,96.60
2018-12-17T23:43:25.761Z,96.60
2018-12-17T23:45:54.211Z,96.60
2018-12-17T23:48:22.719Z,96.60
2018-12-17T23:50:51.791Z,96.60
2018-12-17T23:53:20.050Z,96.60
2018-12-17T23:55:48.300Z,96.60
2018-12-17T23:58:16.558Z,96.60
